KHKA/HKA METAR and TAF weather

Enter ICAO airport designator
Station Type Date Time Source
KHKA METAR 2021/07/28 19:53 UTC NOAA

KHKA 281953Z AUTO 03006KT 10SM CLR 34/22 A3003 RMK AO2 SLP167 T03390222 $


Station Type Date Time Source
KHKA Decoded METAR 2021/07/28 19:53 UTC NOAA

BLYTHEVILLE MUNICIPAL AIRPORT , AR, United States (KHKA) 35-56N 89-50W 78M
Jul 28, 2021 - 03:53 PM EDT / 2021.07.28 1953 UTC
Wind: from the NNE (030 degrees) at 7 MPH (6 KT):0
Visibility: 10 mile(s):0
Sky conditions: clear
Temperature: 93.0 F (33.9 C)
Heat index: 100.8 F (38.2 C):1
Dew Point: 72.0 F (22.2 C)
Relative Humidity: 50%
Pressure (altimeter): 30.03 in. Hg (1016 hPa)
ob: KHKA 281953Z AUTO 03006KT 10SM CLR 34/22 A3003 RMK AO2 SLP167 T03390222
cycle: 20

Station Type Date Time Source
KHKA TAF UTC NOAA

Error!

Example: see airport list